createdAt,value
2023-05-06T00:01:54.257Z,54.82
2023-05-06T00:04:20.999Z,55.56
2023-05-06T00:06:48.972Z,56.26
2023-05-06T00:09:16.045Z,55.29
2023-05-06T00:11:42.580Z,55.09
2023-05-06T00:14:12.302Z,55.26
2023-05-06T00:16:43.967Z,55.50
2023-05-06T00:19:10.588Z,55.70
2023-05-06T00:21:37.235Z,55.57
2023-05-06T00:24:03.915Z,56.77
2023-05-06T00:26:30.951Z,55.49
2023-05-06T00:28:57.732Z,55.57
2023-05-06T00:31:24.968Z,55.66
2023-05-06T00:33:51.572Z,55.83
2023-05-06T00:36:18.600Z,55.72
2023-05-06T00:38:45.760Z,55.67
2023-05-06T00:41:12.476Z,55.62
2023-05-06T00:43:39.091Z,55.69
2023-05-06T00:46:08.085Z,55.67
2023-05-06T00:48:37.611Z,55.32
2023-05-06T00:51:04.298Z,54.95
2023-05-06T00:53:30.889Z,54.79
2023-05-06T00:56:02.546Z,55.20
2023-05-06T00:58:31.954Z,55.31
2023-05-06T01:00:58.614Z,54.95
2023-05-06T01:03:28.591Z,55.74
2023-05-06T01:06:15.635Z,55.65
2023-05-06T01:08:45.048Z,55.73
2023-05-06T01:11:15.615Z,55.39
2023-05-06T01:13:45.290Z,56.03
2023-05-06T01:16:12.507Z,56.62
2023-05-06T01:18:39.150Z,56.79
2023-05-06T01:21:10.673Z,56.27
2023-05-06T01:23:50.158Z,56.79
2023-05-06T01:26:19.062Z,57.07
2023-05-06T01:28:45.650Z,57.54
2023-05-06T01:31:13.519Z,57.21
2023-05-06T01:33:44.957Z,57.08
2023-05-06T01:36:11.627Z,57.46
2023-05-06T01:38:42.104Z,57.30
2023-05-06T01:41:11.138Z,57.25
2023-05-06T01:43:41.917Z,57.54
2023-05-06T01:46:10.331Z,57.63
2023-05-06T01:48:39.416Z,57.58
2023-05-06T01:51:06.130Z,58.17
2023-05-06T01:53:33.606Z,57.79
2023-05-06T01:56:00.707Z,57.70
2023-05-06T01:58:27.307Z,57.80
2023-05-06T02:00:58.415Z,57.94
2023-05-06T02:03:25.458Z,58.29
2023-05-06T02:05:52.223Z,58.37
2023-05-06T02:08:20.371Z,58.65
2023-05-06T02:10:47.110Z,58.28
2023-05-06T02:13:13.934Z,58.07
2023-05-06T02:15:40.713Z,58.36
2023-05-06T02:18:11.659Z,58.15
2023-05-06T02:20:38.295Z,58.26
2023-05-06T02:23:05.599Z,58.90
2023-05-06T02:25:32.182Z,58.42
2023-05-06T02:27:58.868Z,58.18
2023-05-06T02:30:25.480Z,58.32
2023-05-06T02:32:52.143Z,59.53
2023-05-06T02:35:21.457Z,59.16
2023-05-06T02:37:48.737Z,59.73
2023-05-06T02:40:17.811Z,59.79
2023-05-06T02:42:47.462Z,59.28
2023-05-06T02:45:14.100Z,60.05
2023-05-06T02:47:41.344Z,60.65
2023-05-06T02:50:08.135Z,60.12
2023-05-06T02:52:37.102Z,59.96
2023-05-06T02:55:03.863Z,59.56
2023-05-06T02:57:33.422Z,58.90
2023-05-06T03:00:02.186Z,58.78
2023-05-06T03:02:31.208Z,58.69
2023-05-06T03:04:57.809Z,58.84
2023-05-06T03:07:24.403Z,58.62
2023-05-06T03:09:51.196Z,58.29
2023-05-06T03:12:17.887Z,58.29
2023-05-06T03:14:44.685Z,58.29
2023-05-06T03:17:11.325Z,58.48
2023-05-06T03:19:37.934Z,58.84
2023-05-06T03:22:06.807Z,58.92
2023-05-06T03:24:36.241Z,58.59
2023-05-06T03:27:05.385Z,58.74
2023-05-06T03:29:35.162Z,59.10
2023-05-06T03:32:07.170Z,59.42
2023-05-06T03:34:42.665Z,59.71
2023-05-06T03:37:12.772Z,59.53
2023-05-06T03:39:45.246Z,59.22
2023-05-06T03:42:14.550Z,59.13
2023-05-06T03:44:41.311Z,59.13
2023-05-06T03:47:08.225Z,59.19
2023-05-06T03:49:35.088Z,59.15
2023-05-06T03:52:01.852Z,59.44
2023-05-06T03:54:29.090Z,59.35
2023-05-06T03:56:56.307Z,59.22
2023-05-06T03:59:27.956Z,59.32
2023-05-06T04:01:56.521Z,60.58
2023-05-06T04:04:25.291Z,59.93
2023-05-06T04:06:51.891Z,59.67
2023-05-06T04:09:18.663Z,59.61
2023-05-06T04:11:46.178Z,59.32
2023-05-06T04:14:20.645Z,59.28
2023-05-06T04:16:48.204Z,59.89
2023-05-06T04:19:17.951Z,59.18
2023-05-06T04:21:46.017Z,59.54
2023-05-06T04:24:15.935Z,59.76
2023-05-06T04:26:45.045Z,59.18
2023-05-06T04:29:14.756Z,58.51
2023-05-06T04:31:54.124Z,58.84
2023-05-06T04:34:21.778Z,59.14
2023-05-06T04:36:49.628Z,59.54
2023-05-06T04:39:32.414Z,59.31
2023-05-06T04:41:59.071Z,59.46
2023-05-06T04:44:36.675Z,58.96
2023-05-06T04:47:11.079Z,58.67
2023-05-06T04:49:39.778Z,58.11
2023-05-06T04:52:07.560Z,57.61
2023-05-06T04:54:34.196Z,57.63
2023-05-06T04:57:05.869Z,57.48
2023-05-06T04:59:33.109Z,57.12
2023-05-06T05:02:04.178Z,56.82
2023-05-06T05:04:30.902Z,56.64
2023-05-06T05:06:58.642Z,56.03
2023-05-06T05:09:25.901Z,56.06
2023-05-06T05:11:54.941Z,55.90
2023-05-06T05:14:23.712Z,55.89
2023-05-06T05:16:50.398Z,55.53
2023-05-06T05:19:17.560Z,55.09
2023-05-06T05:21:44.153Z,54.96
2023-05-06T05:24:12.673Z,54.95
2023-05-06T05:26:39.337Z,55.27
2023-05-06T05:29:06.725Z,55.27
2023-05-06T05:31:33.884Z,55.25
2023-05-06T05:34:01.411Z,55.39
2023-05-06T05:36:28.371Z,55.26
2023-05-06T05:38:57.618Z,54.96
2023-05-06T05:41:27.147Z,54.72
2023-05-06T05:43:55.116Z,54.85
2023-05-06T05:46:22.003Z,54.54
2023-05-06T05:48:50.042Z,54.32
2023-05-06T05:51:22.286Z,54.84
2023-05-06T05:53:52.878Z,54.82
2023-05-06T05:56:21.765Z,55.13
2023-05-06T05:58:49.453Z,55.27
2023-05-06T06:01:16.381Z,55.39
2023-05-06T06:03:43.779Z,55.57
2023-05-06T06:06:13.103Z,54.95
2023-05-06T06:08:40.663Z,54.87
2023-05-06T06:11:08.131Z,54.98
2023-05-06T06:13:42.136Z,54.70
2023-05-06T06:16:09.134Z,54.46
2023-05-06T06:18:38.546Z,53.94
2023-05-06T06:21:05.495Z,54.07
2023-05-06T06:23:32.386Z,54.00
2023-05-06T06:25:59.579Z,53.59
2023-05-06T06:28:26.418Z,53.23
2023-05-06T06:30:53.890Z,53.24
2023-05-06T06:33:22.581Z,52.92
2023-05-06T06:35:49.225Z,52.37
2023-05-06T06:38:15.852Z,51.48
2023-05-06T06:40:47.198Z,51.31
2023-05-06T06:43:16.977Z,51.18
2023-05-06T06:45:49.685Z,51.65
2023-05-06T06:48:16.554Z,51.60
2023-05-06T06:50:45.897Z,51.58
2023-05-06T06:53:12.488Z,51.21
2023-05-06T06:55:39.447Z,51.13
2023-05-06T06:58:06.144Z,51.01
2023-05-06T07:00:32.750Z,51.18
2023-05-06T07:02:59.411Z,50.72
2023-05-06T07:05:27.215Z,51.07
2023-05-06T07:07:56.256Z,50.81
2023-05-06T07:10:25.921Z,50.92
2023-05-06T07:12:52.659Z,50.57
2023-05-06T07:15:19.881Z,50.60
2023-05-06T07:17:46.809Z,50.38
2023-05-06T07:20:13.543Z,50.89
2023-05-06T07:22:41.409Z,50.29
2023-05-06T07:25:09.017Z,49.93
2023-05-06T07:27:38.340Z,49.87
2023-05-06T07:30:08.310Z,49.25
2023-05-06T07:32:35.086Z,49.12
2023-05-06T07:35:01.850Z,48.72
2023-05-06T07:37:29.058Z,48.63
2023-05-06T07:39:56.794Z,48.43
2023-05-06T07:42:23.502Z,47.88
2023-05-06T07:44:50.351Z,48.75
2023-05-06T07:47:30.031Z,48.73
2023-05-06T07:49:56.793Z,48.59
2023-05-06T07:52:23.675Z,48.25
2023-05-06T07:54:50.345Z,48.36
2023-05-06T07:57:17.133Z,49.16
2023-05-06T07:59:46.636Z,48.89
2023-05-06T08:02:13.513Z,49.00
2023-05-06T08:04:40.540Z,48.87
2023-05-06T08:07:07.196Z,48.47
2023-05-06T08:09:36.349Z,48.26
2023-05-06T08:12:05.935Z,47.90
2023-05-06T08:14:35.050Z,47.77
2023-05-06T08:17:02.822Z,47.94
2023-05-06T08:19:31.977Z,48.73
2023-05-06T08:22:01.147Z,48.87
2023-05-06T08:24:28.356Z,48.74
2023-05-06T08:26:55.236Z,48.57
2023-05-06T08:29:21.916Z,48.80
2023-05-06T08:31:48.630Z,48.12
2023-05-06T08:34:21.311Z,47.79
2023-05-06T08:36:50.906Z,47.99
2023-05-06T08:39:18.166Z,48.12
2023-05-06T08:41:47.393Z,47.74
2023-05-06T08:44:18.735Z,47.82
2023-05-06T08:46:46.200Z,48.03
2023-05-06T08:49:12.876Z,47.88
2023-05-06T08:51:39.495Z,47.97
2023-05-06T08:54:06.096Z,47.49
2023-05-06T08:56:33.301Z,46.38
2023-05-06T08:59:00.205Z,46.87
2023-05-06T09:01:29.448Z,46.25
2023-05-06T09:03:56.489Z,46.65
2023-05-06T09:06:25.559Z,46.79
2023-05-06T09:08:52.268Z,47.15
2023-05-06T09:11:19.568Z,47.62
2023-05-06T09:13:46.647Z,47.25
2023-05-06T09:16:26.405Z,47.67
2023-05-06T09:18:55.915Z,46.74
2023-05-06T09:21:22.752Z,46.66
2023-05-06T09:23:50.009Z,46.27
2023-05-06T09:26:16.953Z,45.44
2023-05-06T09:28:47.045Z,44.30
2023-05-06T09:31:16.557Z,44.93
2023-05-06T09:33:43.328Z,43.77
2023-05-06T09:36:13.514Z,43.21
2023-05-06T09:38:41.065Z,41.73
2023-05-06T09:41:07.938Z,40.41
2023-05-06T09:43:36.751Z,41.65
2023-05-06T09:46:06.113Z,41.22
2023-05-06T09:48:32.931Z,40.46
2023-05-06T09:51:01.242Z,39.97
2023-05-06T09:53:28.957Z,38.94
2023-05-06T09:55:56.345Z,39.03
2023-05-06T09:58:25.468Z,37.34
2023-05-06T10:00:52.790Z,38.52
2023-05-06T10:03:19.846Z,38.28
2023-05-06T10:05:46.601Z,38.29
2023-05-06T10:08:15.385Z,37.69
2023-05-06T10:10:42.123Z,35.98
2023-05-06T10:13:08.835Z,36.91
2023-05-06T10:15:37.887Z,36.92
2023-05-06T10:18:11.988Z,36.04
2023-05-06T10:20:38.578Z,34.66
2023-05-06T10:23:24.707Z,36.05
2023-05-06T10:25:53.655Z,35.12
2023-05-06T10:28:23.011Z,36.67
2023-05-06T10:31:00.217Z,37.27
2023-05-06T10:33:26.858Z,36.81
2023-05-06T10:36:16.874Z,37.27
2023-05-06T10:38:47.363Z,36.95
2023-05-06T10:41:14.377Z,37.26
2023-05-06T10:43:41.739Z,37.29
2023-05-06T10:46:11.922Z,37.23
2023-05-06T10:48:39.508Z,37.82
2023-05-06T10:51:22.914Z,37.09
2023-05-06T10:54:05.035Z,37.25
2023-05-06T10:56:32.292Z,36.16
2023-05-06T10:59:08.827Z,36.20
2023-05-06T11:01:47.529Z,36.20
2023-05-06T11:04:15.069Z,33.96
2023-05-06T11:06:44.973Z,33.75
2023-05-06T11:09:21.203Z,32.85
2023-05-06T11:12:01.001Z,32.32
2023-05-06T11:14:27.652Z,33.28
2023-05-06T11:16:56.922Z,33.62
2023-05-06T11:19:24.303Z,33.89
2023-05-06T11:21:51.458Z,34.49
2023-05-06T11:24:22.514Z,33.99
2023-05-06T11:26:51.525Z,33.99
2023-05-06T11:29:20.982Z,34.56
2023-05-06T11:31:53.175Z,33.00
2023-05-06T11:34:23.882Z,33.80
2023-05-06T11:36:57.253Z,33.05
2023-05-06T11:39:30.672Z,34.25
2023-05-06T11:42:02.853Z,34.77
2023-05-06T11:44:30.758Z,35.00
2023-05-06T11:46:59.706Z,35.51
2023-05-06T11:49:29.210Z,35.40
2023-05-06T11:51:58.739Z,35.42
2023-05-06T11:54:26.058Z,35.39
2023-05-06T11:56:53.398Z,35.52
2023-05-06T11:59:28.285Z,36.07
2023-05-06T12:01:56.387Z,35.93
2023-05-06T12:04:23.978Z,36.17
2023-05-06T12:07:00.680Z,35.83
2023-05-06T12:09:27.895Z,36.28
2023-05-06T12:11:57.395Z,36.11
2023-05-06T12:14:26.447Z,35.81
2023-05-06T12:16:55.932Z,35.88
2023-05-06T12:19:23.041Z,35.27
2023-05-06T12:21:52.506Z,36.01
2023-05-06T12:24:26.801Z,36.06
2023-05-06T12:26:58.955Z,36.54
2023-05-06T12:29:25.864Z,36.09
2023-05-06T12:32:10.976Z,36.38
2023-05-06T12:34:41.117Z,36.38
2023-05-06T12:37:12.570Z,36.52
2023-05-06T12:39:49.040Z,36.66
2023-05-06T12:42:20.121Z,37.24
2023-05-06T12:44:47.197Z,37.55
2023-05-06T12:47:20.668Z,38.04
2023-05-06T12:49:50.159Z,38.52
2023-05-06T12:52:20.007Z,38.06
2023-05-06T12:54:46.924Z,38.34
2023-05-06T12:57:13.955Z,38.95
2023-05-06T12:59:45.529Z,39.06
2023-05-06T13:02:14.571Z,39.31
2023-05-06T13:04:42.135Z,39.48
2023-05-06T13:07:11.484Z,39.14
2023-05-06T13:09:38.422Z,39.12
2023-05-06T13:12:05.301Z,38.84
2023-05-06T13:14:40.108Z,39.10
2023-05-06T13:17:14.856Z,38.81
2023-05-06T13:19:42.646Z,39.22
2023-05-06T13:22:11.778Z,39.34
2023-05-06T13:24:40.840Z,38.94
2023-05-06T13:27:12.777Z,38.84
2023-05-06T13:29:39.598Z,40.92
2023-05-06T13:32:09.110Z,42.39
2023-05-06T13:34:36.077Z,42.92
2023-05-06T13:37:10.171Z,43.02
2023-05-06T13:39:36.813Z,43.32
2023-05-06T13:42:08.222Z,44.21
2023-05-06T13:44:35.887Z,44.74
2023-05-06T13:47:04.888Z,45.38
2023-05-06T13:49:40.173Z,45.67
2023-05-06T13:52:08.412Z,45.63
2023-05-06T13:54:35.846Z,45.50
2023-05-06T13:57:10.010Z,45.76
2023-05-06T13:59:38.741Z,45.78
2023-05-06T14:02:09.621Z,45.14
2023-05-06T14:04:39.577Z,45.65
2023-05-06T14:07:06.234Z,46.26
2023-05-06T14:09:32.978Z,46.65
2023-05-06T14:11:59.778Z,48.26
2023-05-06T14:14:27.493Z,49.60
2023-05-06T14:16:55.651Z,49.93
2023-05-06T14:19:22.355Z,50.47
2023-05-06T14:21:51.891Z,50.99
2023-05-06T14:24:20.972Z,51.61
2023-05-06T14:26:47.791Z,51.67
2023-05-06T14:29:14.421Z,52.49
2023-05-06T14:31:46.605Z,53.22
2023-05-06T14:34:18.286Z,53.98
2023-05-06T14:36:47.094Z,55.48
2023-05-06T14:39:14.334Z,55.03
2023-05-06T14:41:40.975Z,56.27
2023-05-06T14:44:10.188Z,57.14
2023-05-06T14:46:36.778Z,56.99
2023-05-06T14:49:03.370Z,57.67
2023-05-06T14:51:30.193Z,57.68
2023-05-06T14:53:57.266Z,57.39
2023-05-06T14:56:24.089Z,57.36
2023-05-06T14:58:50.827Z,57.38
2023-05-06T15:01:17.570Z,56.50
2023-05-06T15:03:45.356Z,56.49
2023-05-06T15:06:12.619Z,56.99
2023-05-06T15:08:41.980Z,56.92
2023-05-06T15:11:08.517Z,57.43
2023-05-06T15:13:37.628Z,57.76
2023-05-06T15:16:04.797Z,56.68
2023-05-06T15:18:31.532Z,56.65
2023-05-06T15:21:01.013Z,56.32
2023-05-06T15:23:30.709Z,56.21
2023-05-06T15:25:58.152Z,56.09
2023-05-06T15:28:24.882Z,56.32
2023-05-06T15:30:54.194Z,56.29
2023-05-06T15:33:20.891Z,55.74
2023-05-06T15:35:47.563Z,55.80
2023-05-06T15:38:14.226Z,55.44
2023-05-06T15:40:40.880Z,53.01
2023-05-06T15:43:08.859Z,51.90
2023-05-06T15:45:38.233Z,51.14
2023-05-06T15:48:07.262Z,50.67
2023-05-06T15:50:34.362Z,50.43
2023-05-06T15:53:02.230Z,49.16
2023-05-06T15:55:29.065Z,49.18
2023-05-06T15:58:00.440Z,48.72
2023-05-06T16:00:28.081Z,48.16
2023-05-06T16:02:54.873Z,47.69
2023-05-06T16:05:24.057Z,47.16
2023-05-06T16:07:50.726Z,47.27
2023-05-06T16:10:17.385Z,47.26
2023-05-06T16:12:46.444Z,47.66
2023-05-06T16:15:13.113Z,47.95
2023-05-06T16:17:42.176Z,47.40
2023-05-06T16:20:10.632Z,46.72
2023-05-06T16:22:40.708Z,46.31
2023-05-06T16:25:10.329Z,46.11
2023-05-06T16:27:36.943Z,46.26
2023-05-06T16:30:03.710Z,46.73
2023-05-06T16:32:30.472Z,46.69
2023-05-06T16:34:57.235Z,47.04
2023-05-06T16:37:26.290Z,48.18
2023-05-06T16:39:57.564Z,48.94
2023-05-06T16:42:26.752Z,49.80
2023-05-06T16:44:53.454Z,50.45
2023-05-06T16:47:24.314Z,50.91
2023-05-06T16:49:53.931Z,51.41
2023-05-06T16:52:20.747Z,51.79
2023-05-06T16:54:47.326Z,52.04
2023-05-06T16:57:14.337Z,52.48
2023-05-06T16:59:40.990Z,52.73
2023-05-06T17:02:07.698Z,52.56
2023-05-06T17:04:34.379Z,52.58
2023-05-06T17:07:01.197Z,52.71
2023-05-06T17:09:30.246Z,52.85
2023-05-06T17:11:56.864Z,53.13
2023-05-06T17:14:25.957Z,53.62
2023-05-06T17:16:52.829Z,53.81
2023-05-06T17:19:19.565Z,53.93
2023-05-06T17:21:46.106Z,54.07
2023-05-06T17:24:12.692Z,54.04
2023-05-06T17:26:41.865Z,53.69
2023-05-06T17:29:09.310Z,54.23
2023-05-06T17:31:36.266Z,54.23
2023-05-06T17:34:03.875Z,54.26
2023-05-06T17:36:31.260Z,53.99
2023-05-06T17:39:07.662Z,54.25
2023-05-06T17:41:36.731Z,54.65
2023-05-06T17:44:05.945Z,54.97
2023-05-06T17:46:33.534Z,54.94
2023-05-06T17:49:00.647Z,55.07
2023-05-06T17:51:27.559Z,55.59
2023-05-06T17:53:54.156Z,55.82
2023-05-06T17:56:20.968Z,55.82
2023-05-06T17:58:50.037Z,55.52
2023-05-06T18:01:16.648Z,55.52
2023-05-06T18:03:45.065Z,56.04
2023-05-06T18:06:12.002Z,55.90
2023-05-06T18:08:38.619Z,56.05
2023-05-06T18:11:06.015Z,56.57
2023-05-06T18:13:36.405Z,56.44
2023-05-06T18:16:05.816Z,56.54
2023-05-06T18:18:32.484Z,56.34
2023-05-06T18:20:59.054Z,56.72
2023-05-06T18:23:26.542Z,57.23
2023-05-06T18:25:58.552Z,57.19
2023-05-06T18:28:27.646Z,58.02
2023-05-06T18:30:56.728Z,58.15
2023-05-06T18:33:25.446Z,59.29
2023-05-06T18:35:52.071Z,58.16
2023-05-06T18:38:18.762Z,58.53
2023-05-06T18:40:47.967Z,58.72
2023-05-06T18:43:14.590Z,58.78
2023-05-06T18:45:43.715Z,58.75
2023-05-06T18:48:11.010Z,59.09
2023-05-06T18:50:37.786Z,58.69
2023-05-06T18:53:04.708Z,58.68
2023-05-06T18:55:31.389Z,59.19
2023-05-06T18:58:04.766Z,59.20
2023-05-06T19:00:32.652Z,60.19
2023-05-06T19:02:59.287Z,59.89
2023-05-06T19:05:26.133Z,60.26
2023-05-06T19:07:52.708Z,60.26
2023-05-06T19:10:19.430Z,61.41
2023-05-06T19:12:46.193Z,62.83
2023-05-06T19:15:15.357Z,64.56
2023-05-06T19:17:42.142Z,64.29
2023-05-06T19:20:09.213Z,63.44
2023-05-06T19:22:40.702Z,62.53
2023-05-06T19:25:08.301Z,62.36
2023-05-06T19:27:37.474Z,61.81
2023-05-06T19:30:04.279Z,62.11
2023-05-06T19:32:31.542Z,61.87
2023-05-06T19:34:59.174Z,62.08
2023-05-06T19:37:34.415Z,61.94
2023-05-06T19:40:04.309Z,62.26
2023-05-06T19:42:33.702Z,61.71
2023-05-06T19:45:06.132Z,61.82
2023-05-06T19:47:32.982Z,61.74
2023-05-06T19:49:59.726Z,61.73
2023-05-06T19:52:30.620Z,61.40
2023-05-06T19:54:57.594Z,61.21
2023-05-06T19:57:27.721Z,63.98
2023-05-06T19:59:56.876Z,65.42
2023-05-06T20:02:23.954Z,67.28
2023-05-06T20:04:51.126Z,66.15
2023-05-06T20:07:18.100Z,66.82
2023-05-06T20:09:44.773Z,68.58
2023-05-06T20:12:13.974Z,67.47
2023-05-06T20:14:40.674Z,66.26
2023-05-06T20:17:09.551Z,67.07
2023-05-06T20:19:38.653Z,67.89
2023-05-06T20:22:05.384Z,65.47
2023-05-06T20:24:32.211Z,65.14
2023-05-06T20:26:59.209Z,64.71
2023-05-06T20:29:28.528Z,64.75
2023-05-06T20:31:55.407Z,64.21
2023-05-06T20:34:22.093Z,64.47
2023-05-06T20:36:50.236Z,64.26
2023-05-06T20:39:19.216Z,64.09
2023-05-06T20:41:48.386Z,64.38
2023-05-06T20:44:15.413Z,64.00
2023-05-06T20:46:44.522Z,63.58
2023-05-06T20:49:12.133Z,64.06
2023-05-06T20:51:41.570Z,63.87
2023-05-06T20:54:08.610Z,63.40
2023-05-06T20:56:37.726Z,63.73
2023-05-06T20:59:06.897Z,63.28
2023-05-06T21:01:33.572Z,63.14
2023-05-06T21:04:04.782Z,63.05
2023-05-06T21:06:36.202Z,63.06
2023-05-06T21:09:03.226Z,63.19
2023-05-06T21:11:37.368Z,62.83
2023-05-06T21:14:06.855Z,62.41
2023-05-06T21:16:33.580Z,62.34
2023-05-06T21:19:02.667Z,61.80
2023-05-06T21:21:32.844Z,62.36
2023-05-06T21:24:02.062Z,62.93
2023-05-06T21:26:32.690Z,63.09
2023-05-06T21:29:03.869Z,62.79
2023-05-06T21:31:30.687Z,63.01
2023-05-06T21:34:00.526Z,64.45
2023-05-06T21:36:27.385Z,64.30
2023-05-06T21:39:01.782Z,64.88
2023-05-06T21:41:28.725Z,64.82
2023-05-06T21:43:55.389Z,65.27
2023-05-06T21:46:24.796Z,65.64
2023-05-06T21:48:51.460Z,65.18
2023-05-06T21:51:18.038Z,65.09
2023-05-06T21:53:50.609Z,65.07
2023-05-06T21:56:20.253Z,65.17
2023-05-06T21:58:49.529Z,65.11
2023-05-06T22:01:16.152Z,64.84
2023-05-06T22:03:43.727Z,65.02
2023-05-06T22:06:10.399Z,64.81
2023-05-06T22:08:37.138Z,64.14
2023-05-06T22:11:06.660Z,64.29
2023-05-06T22:13:36.257Z,64.12
2023-05-06T22:16:05.697Z,63.71
2023-05-06T22:18:36.031Z,63.56
2023-05-06T22:21:03.486Z,63.48
2023-05-06T22:23:30.170Z,63.55
2023-05-06T22:26:00.306Z,63.03
2023-05-06T22:28:27.165Z,63.00
2023-05-06T22:30:56.686Z,63.52
2023-05-06T22:33:25.790Z,63.11
2023-05-06T22:35:55.562Z,62.67
2023-05-06T22:38:22.294Z,62.47
2023-05-06T22:40:49.326Z,62.41
2023-05-06T22:43:15.983Z,61.84
2023-05-06T22:45:45.132Z,61.35
2023-05-06T22:48:12.323Z,60.94
2023-05-06T22:50:39.040Z,61.45
2023-05-06T22:53:14.582Z,61.35
2023-05-06T22:55:42.506Z,61.60
2023-05-06T22:58:11.829Z,61.66
2023-05-06T23:00:41.066Z,61.69
2023-05-06T23:03:08.091Z,61.75
2023-05-06T23:05:37.623Z,61.70
2023-05-06T23:08:06.374Z,62.24
2023-05-06T23:10:32.971Z,62.34
2023-05-06T23:13:03.129Z,62.37
2023-05-06T23:15:29.781Z,62.48
2023-05-06T23:17:58.780Z,62.38
2023-05-06T23:20:30.183Z,62.03
2023-05-06T23:22:56.858Z,62.16
2023-05-06T23:25:28.291Z,62.60
2023-05-06T23:27:55.350Z,62.19
2023-05-06T23:30:22.003Z,61.81
2023-05-06T23:32:48.616Z,61.86
2023-05-06T23:35:15.329Z,61.38
2023-05-06T23:37:41.972Z,60.90
2023-05-06T23:40:08.749Z,61.08
2023-05-06T23:42:35.545Z,60.42
2023-05-06T23:45:05.089Z,61.01
2023-05-06T23:47:34.055Z,61.47
2023-05-06T23:50:01.082Z,61.55
2023-05-06T23:52:30.262Z,61.94
2023-05-06T23:54:56.833Z,62.16
2023-05-06T23:57:25.836Z,62.72
2023-05-06T23:59:52.452Z,62.20
